Time;durP1;ratioP1;P1;durP2;ratioP2;P2;SDS_P1;SDS_P2;PMS_P1;PMS_P2;Temp;Humidity;BMP_temperature;BMP_pressure;BME280_temperature;BME280_humidity;BME280_pressure;Samples;Min_cycle;Max_cycle;Signal;HPM_P1;HPM_P2
2024/01/14 00:00:10;;;;;;;2.90;1.48;;;4.20;99.90;;;;;;5036706;28;20037;-64
2024/01/14 00:02:37;;;;;;;2.45;1.35;;;4.20;99.90;;;;;;5036922;28;20041;-63
2024/01/14 00:05:03;;;;;;;2.85;1.67;;;4.30;99.90;;;;;;5002509;28;20041;-63
2024/01/14 00:07:29;;;;;;;2.95;1.40;;;4.20;99.90;;;;;;5036912;28;20041;-63
2024/01/14 00:09:55;;;;;;;1.33;1.13;;;4.20;99.90;;;;;;5036818;28;20477;-63
2024/01/14 00:12:21;;;;;;;3.22;1.48;;;4.70;99.90;;;;;;5036298;28;20056;-64
2024/01/14 00:14:46;;;;;;;3.55;2.00;;;4.20;99.90;;;;;;5036551;28;20112;-64
2024/01/14 00:17:12;;;;;;;2.20;1.25;;;4.30;99.90;;;;;;5036702;28;20091;-64
2024/01/14 00:19:38;;;;;;;1.27;1.00;;;4.80;99.90;;;;;;5036753;28;20038;-64
2024/01/14 00:22:04;;;;;;;2.28;1.20;;;4.30;99.90;;;;;;5036300;28;20551;-64
2024/01/14 00:24:30;;;;;;;2.50;1.00;;;4.30;99.90;;;;;;5036522;28;20112;-63
2024/01/14 00:26:55;;;;;;;2.28;1.35;;;4.30;99.90;;;;;;5036176;28;20116;-64
2024/01/14 00:29:21;;;;;;;3.40;1.45;;;4.30;99.90;;;;;;5036116;28;20034;-64
2024/01/14 00:32:00;;;;;;;2.47;1.38;;;4.30;99.90;;;;;;5016515;28;20453;-64
2024/01/14 00:34:26;;;;;;;1.73;1.30;;;4.30;99.90;;;;;;5016658;28;20084;-64
2024/01/14 00:36:51;;;;;;;3.67;1.05;;;4.30;99.90;;;;;;5016552;28;20389;-64
2024/01/14 00:39:17;;;;;;;5.20;1.77;;;4.30;99.90;;;;;;5016510;28;20034;-68
2024/01/14 00:41:42;;;;;;;2.58;1.23;;;4.90;99.90;;;;;;4998857;28;20097;-64
2024/01/14 00:44:08;;;;;;;1.70;1.17;;;4.40;99.90;;;;;;5014708;28;20049;-64
2024/01/14 00:46:34;;;;;;;4.18;1.45;;;4.40;99.90;;;;;;5016277;28;20037;-64
2024/01/14 00:49:00;;;;;;;2.78;1.65;;;4.20;99.90;;;;;;4998442;28;20455;-63
2024/01/14 00:51:25;;;;;;;2.38;1.70;;;4.30;99.90;;;;;;5016512;28;20061;-76
2024/01/14 00:53:51;;;;;;;2.92;1.55;;;4.30;99.90;;;;;;5016409;28;20084;-76
2024/01/14 00:56:17;;;;;;;5.68;1.65;;;4.30;99.90;;;;;;5016143;28;20029;-74
2024/01/14 00:58:43;;;;;;;2.75;1.08;;;4.40;99.90;;;;;;5015997;28;20042;-74
2024/01/14 01:01:09;;;;;;;2.58;1.50;;;4.40;99.90;;;;;;5016180;28;20052;-74
2024/01/14 01:03:34;;;;;;;2.05;1.05;;;4.40;99.90;;;;;;4998270;28;20827;-75
2024/01/14 01:06:00;;;;;;;3.45;1.55;;;4.30;99.90;;;;;;5015904;28;20042;-75
2024/01/14 01:08:26;;;;;;;4.78;1.50;;;4.30;99.90;;;;;;4998382;28;20085;-75
2024/01/14 01:10:51;;;;;;;3.47;1.65;;;4.30;99.90;;;;;;4998135;28;20116;-74
2024/01/14 01:13:17;;;;;;;2.70;1.15;;;4.20;99.90;;;;;;5015668;28;20046;-75
2024/01/14 01:15:43;;;;;;;2.42;1.55;;;4.30;99.90;;;;;;5015757;28;20038;-77
2024/01/14 01:18:09;;;;;;;1.98;1.17;;;4.10;99.90;;;;;;5015847;28;20077;-77
2024/01/14 01:20:35;;;;;;;1.85;1.10;;;4.20;99.90;;;;;;5015550;28;20091;-76
2024/01/14 01:23:00;;;;;;;2.05;1.10;;;4.10;99.90;;;;;;5015572;28;20045;-77
2024/01/14 01:25:26;;;;;;;1.20;0.80;;;4.10;99.90;;;;;;5015982;28;20548;-77
2024/01/14 01:27:51;;;;;;;1.95;1.25;;;4.10;99.90;;;;;;5015693;28;20042;-77
2024/01/14 01:30:23;;;;;;;1.77;1.33;;;4.00;99.90;;;;;;5022752;28;20093;-60
2024/01/14 01:33:03;;;;;;;1.63;1.00;;;4.00;99.90;;;;;;5035154;28;20103;-60
2024/01/14 01:35:29;;;;;;;1.85;1.23;;;4.00;99.90;;;;;;5034981;28;20045;-60
2024/01/14 01:37:54;;;;;;;3.17;1.33;;;4.00;99.90;;;;;;5034987;28;20033;-59
2024/01/14 01:40:20;;;;;;;2.10;1.02;;;4.00;99.90;;;;;;5017368;28;20049;-60
2024/01/14 01:42:47;;;;;;;3.03;1.20;;;4.10;99.90;;;;;;5017135;28;20409;-60
2024/01/14 01:45:12;;;;;;;2.22;1.40;;;4.10;99.90;;;;;;5034970;28;20049;-60
2024/01/14 01:47:39;;;;;;;3.72;1.65;;;4.00;99.90;;;;;;5034761;28;20481;-60
2024/01/14 01:50:05;;;;;;;1.88;1.05;;;4.10;99.90;;;;;;5034872;28;20037;-60
2024/01/14 01:52:31;;;;;;;2.88;1.13;;;4.10;99.90;;;;;;5034544;28;20401;-60
2024/01/14 01:54:57;;;;;;;3.08;1.40;;;4.10;99.90;;;;;;5016756;28;20113;-60
2024/01/14 01:57:24;;;;;;;2.13;1.10;;;4.10;99.90;;;;;;5017127;28;20045;-61
2024/01/14 01:59:51;;;;;;;2.40;1.05;;;4.20;99.90;;;;;;5016824;28;20056;-64
2024/01/14 02:02:17;;;;;;;2.60;1.35;;;4.10;99.90;;;;;;5034738;28;20041;-64
2024/01/14 02:04:42;;;;;;;2.17;1.30;;;4.00;99.90;;;;;;5034572;28;20534;-64
2024/01/14 02:07:09;;;;;;;2.55;1.20;;;4.00;99.90;;;;;;5034367;28;20037;-64
2024/01/14 02:09:36;;;;;;;1.75;1.13;;;4.10;99.90;;;;;;5016543;28;20045;-64
2024/01/14 02:12:01;;;;;;;2.38;1.10;;;3.90;99.90;;;;;;5034497;28;20041;-64
2024/01/14 02:14:27;;;;;;;1.27;1.00;;;3.80;99.90;;;;;;5016487;28;20043;-64
2024/01/14 02:16:53;;;;;;;2.28;1.00;;;3.70;99.90;;;;;;5034413;28;20159;-64
2024/01/14 02:19:19;;;;;;;3.80;1.00;;;3.60;99.90;;;;;;5034314;28;20037;-64
2024/01/14 02:21:56;;;;;;;2.17;1.10;;;3.60;99.90;;;;;;5034180;28;20061;-64
2024/01/14 02:24:29;;;;;;;1.30;1.13;;;3.80;99.90;;;;;;5016270;28;20061;-64
2024/01/14 02:26:55;;;;;;;1.90;0.88;;;3.50;99.90;;;;;;5016536;28;20048;-64
2024/01/14 02:29:21;;;;;;;2.55;1.15;;;3.50;99.90;;;;;;5034222;28;20041;-65
2024/01/14 02:31:53;;;;;;;1.77;1.13;;;3.40;99.90;;;;;;5033455;28;20057;-64
2024/01/14 02:34:19;;;;;;;0.77;0.73;;;3.20;99.90;;;;;;5016132;28;20398;-65
2024/01/14 02:36:45;;;;;;;1.98;1.30;;;3.40;99.90;;;;;;5034111;28;20040;-65
2024/01/14 02:39:10;;;;;;;3.53;1.10;;;3.30;99.90;;;;;;5034060;28;20072;-67
2024/01/14 02:41:36;;;;;;;2.47;0.98;;;3.30;99.90;;;;;;5031390;28;20037;-77
2024/01/14 02:44:02;;;;;;;2.60;1.00;;;3.30;99.90;;;;;;5043401;28;20117;-76
2024/01/14 02:46:30;;;;;;;0.70;0.70;;;3.30;99.90;;;;;;5047934;28;20041;-76
2024/01/14 02:48:57;;;;;;;2.05;1.13;;;3.40;99.90;;;;;;5045851;28;20040;-76
2024/01/14 02:51:23;;;;;;;1.45;0.93;;;3.20;99.90;;;;;;5044380;28;20121;-76
2024/01/14 02:53:48;;;;;;;1.60;0.82;;;3.20;99.90;;;;;;5047028;28;20030;-75
2024/01/14 02:56:14;;;;;;;1.02;0.82;;;3.50;99.90;;;;;;5032573;28;20068;-76
2024/01/14 02:58:40;;;;;;;1.35;1.00;;;3.10;99.90;;;;;;5046616;28;20038;-77
2024/01/14 03:01:05;;;;;;;1.85;1.10;;;3.50;99.90;;;;;;5018050;28;20033;-76
2024/01/14 03:03:31;;;;;;;1.42;1.25;;;3.10;99.90;;;;;;5030954;28;20049;-75
2024/01/14 03:05:57;;;;;;;1.35;0.90;;;3.20;99.90;;;;;;5049554;28;20417;-76
2024/01/14 03:08:23;;;;;;;1.33;1.08;;;3.60;99.90;;;;;;5048902;28;20037;-76
2024/01/14 03:10:49;;;;;;;2.55;1.00;;;3.30;99.90;;;;;;5047887;28;20521;-77
2024/01/14 03:13:16;;;;;;;1.77;1.10;;;3.30;99.90;;;;;;5043748;28;20481;-77
2024/01/14 03:15:45;;;;;;;2.58;1.05;;;3.30;99.90;;;;;;5040616;28;20087;-76
2024/01/14 03:18:15;;;;;;;2.75;1.40;;;3.30;99.90;;;;;;5041417;28;20030;-77
2024/01/14 03:20:42;;;;;;;3.67;1.25;;;3.40;99.90;;;;;;5035433;28;20109;-77
2024/01/14 03:23:08;;;;;;;2.85;1.13;;;3.40;99.90;;;;;;5015840;28;20046;-77
2024/01/14 03:25:34;;;;;;;2.22;1.10;;;3.40;99.90;;;;;;5034484;28;20124;-77
2024/01/14 03:27:59;;;;;;;1.83;0.90;;;3.50;99.90;;;;;;5017003;28;20037;-77
2024/01/14 03:30:25;;;;;;;2.30;0.82;;;3.40;99.90;;;;;;5017839;28;20528;-77
2024/01/14 03:33:04;;;;;;;2.28;0.98;;;3.30;99.90;;;;;;5036903;28;20054;-77
2024/01/14 03:35:29;;;;;;;2.05;1.13;;;3.30;99.90;;;;;;5038914;28;20052;-77
2024/01/14 03:37:55;;;;;;;1.55;1.00;;;3.20;99.90;;;;;;5020910;28;20041;-77
2024/01/14 03:40:21;;;;;;;2.28;0.98;;;3.20;99.90;;;;;;5017186;28;20037;-77
2024/01/14 03:42:46;;;;;;;1.35;1.02;;;3.10;99.90;;;;;;5019903;28;20489;-78
2024/01/14 03:45:12;;;;;;;2.38;1.10;;;3.10;99.90;;;;;;5020227;28;20054;-78
2024/01/14 03:47:38;;;;;;;4.68;1.45;;;3.10;99.90;;;;;;5034065;28;20046;-78
2024/01/14 03:50:04;;;;;;;3.00;1.02;;;3.10;99.90;;;;;;5037125;28;20048;-60
2024/01/14 03:52:29;;;;;;;2.75;1.25;;;3.10;99.90;;;;;;5015145;28;20088;-60
2024/01/14 03:54:55;;;;;;;1.58;1.00;;;3.50;99.90;;;;;;5032786;28;20037;-61
2024/01/14 03:57:20;;;;;;;3.00;1.27;;;3.20;99.90;;;;;;5032953;28;20041;-61
2024/01/14 03:59:46;;;;;;;2.47;1.08;;;3.20;99.90;;;;;;5015337;28;20038;-60
2024/01/14 04:02:12;;;;;;;2.42;1.30;;;3.20;99.90;;;;;;5015116;28;20046;-59
2024/01/14 04:04:37;;;;;;;2.38;1.23;;;3.20;99.90;;;;;;5033083;28;20038;-59
2024/01/14 04:07:03;;;;;;;2.65;1.00;;;3.10;99.90;;;;;;5015078;28;20125;-59
2024/01/14 04:09:29;;;;;;;2.25;1.35;;;3.00;99.90;;;;;;5032717;28;20044;-60
2024/01/14 04:11:54;;;;;;;2.17;1.25;;;3.00;99.90;;;;;;5032959;28;20034;-60
2024/01/14 04:14:20;;;;;;;1.75;1.20;;;3.00;99.90;;;;;;5032963;28;20041;-60
2024/01/14 04:16:45;;;;;;;2.85;1.27;;;2.90;99.90;;;;;;5032968;28;20030;-59
2024/01/14 04:19:11;;;;;;;2.17;1.23;;;3.00;99.90;;;;;;5016853;28;20037;-77
2024/01/14 04:21:37;;;;;;;3.53;1.42;;;3.00;99.90;;;;;;5036513;28;20029;-64
2024/01/14 04:24:02;;;;;;;1.75;1.13;;;2.80;99.90;;;;;;5018791;28;20045;-64
2024/01/14 04:26:28;;;;;;;3.33;1.55;;;3.10;99.90;;;;;;5036327;28;20044;-64
2024/01/14 04:28:54;;;;;;;2.28;1.10;;;2.80;99.90;;;;;;5002001;28;20402;-64
2024/01/14 04:31:28;;;;;;;3.78;1.67;;;2.80;99.90;;;;;;5018087;28;20060;-65
2024/01/14 04:34:07;;;;;;;2.15;1.23;;;2.70;99.90;;;;;;5035971;28;20057;-65
2024/01/14 04:36:32;;;;;;;3.22;1.40;;;2.70;99.90;;;;;;5036311;28;20108;-64
2024/01/14 04:38:58;;;;;;;2.97;1.58;;;2.80;99.90;;;;;;5018253;28;20124;-64
2024/01/14 04:41:24;;;;;;;2.63;1.20;;;2.70;99.90;;;;;;5035891;28;20038;-64
2024/01/14 04:43:49;;;;;;;2.30;1.20;;;2.60;99.90;;;;;;5036178;28;20129;-64
2024/01/14 04:46:15;;;;;;;3.50;1.42;;;3.40;99.90;;;;;;5035918;28;20041;-64
2024/01/14 04:48:40;;;;;;;2.63;1.40;;;2.60;99.90;;;;;;5036043;28;20034;-64
2024/01/14 04:51:06;;;;;;;1.75;1.05;;;3.00;99.90;;;;;;5018046;28;20050;-64
2024/01/14 04:53:32;;;;;;;1.17;0.88;;;2.50;99.90;;;;;;5035899;28;20144;-64
2024/01/14 04:55:57;;;;;;;2.20;1.20;;;3.10;99.90;;;;;;5035731;28;20033;-64
2024/01/14 04:58:23;;;;;;;3.40;1.27;;;2.50;99.90;;;;;;5035822;28;20038;-64
2024/01/14 05:00:49;;;;;;;2.92;1.30;;;2.50;99.90;;;;;;5036068;28;20041;-78
2024/01/14 05:03:15;;;;;;;1.98;1.25;;;2.50;99.90;;;;;;5036825;28;20049;-78
2024/01/14 05:05:40;;;;;;;1.80;1.00;;;2.50;99.90;;;;;;5037373;28;20120;-78
2024/01/14 05:08:06;;;;;;;2.67;1.45;;;2.80;99.90;;;;;;5036784;28;20116;-79
2024/01/14 05:10:31;;;;;;;3.22;1.20;;;2.40;99.90;;;;;;5019481;28;20046;-79
2024/01/14 05:12:57;;;;;;;4.30;1.50;;;2.50;99.90;;;;;;5036470;28;20405;-78
2024/01/14 05:15:23;;;;;;;3.75;1.17;;;2.50;99.90;;;;;;5035952;28;20037;-78
2024/01/14 05:17:48;;;;;;;2.03;1.20;;;2.40;99.90;;;;;;5036071;28;20568;-78
2024/01/14 05:20:14;;;;;;;4.75;1.83;;;2.40;99.90;;;;;;5018127;28;20085;-78
2024/01/14 05:22:39;;;;;;;3.97;1.50;;;2.30;99.90;;;;;;5018582;28;20136;-78
2024/01/14 05:25:06;;;;;;;3.72;1.15;;;2.30;99.90;;;;;;5017881;28;20045;-78
2024/01/14 05:27:31;;;;;;;1.73;1.30;;;2.30;99.90;;;;;;5035576;28;20045;-78
2024/01/14 05:30:03;;;;;;;2.97;1.40;;;2.30;99.90;;;;;;5034476;28;20048;-60
2024/01/14 05:32:43;;;;;;;1.58;1.15;;;2.20;99.90;;;;;;5017115;28;20133;-59
2024/01/14 05:35:08;;;;;;;3.47;1.45;;;2.20;99.90;;;;;;5017234;28;20041;-59
2024/01/14 05:37:34;;;;;;;2.95;1.45;;;2.20;99.90;;;;;;5034822;28;20033;-60
2024/01/14 05:40:00;;;;;;;2.72;1.58;;;2.10;99.90;;;;;;5034779;28;20034;-60
2024/01/14 05:42:25;;;;;;;2.15;1.25;;;2.10;99.90;;;;;;5017094;28;20124;-59
2024/01/14 05:44:51;;;;;;;2.65;1.38;;;2.20;99.90;;;;;;5034667;28;20077;-59
2024/01/14 05:47:16;;;;;;;3.65;1.90;;;2.10;99.90;;;;;;5034736;28;20037;-59
2024/01/14 05:49:42;;;;;;;1.73;1.20;;;2.10;99.90;;;;;;5016913;28;20409;-59
2024/01/14 05:52:08;;;;;;;4.20;1.00;;;2.20;99.90;;;;;;5016814;28;20044;-61
2024/01/14 05:54:33;;;;;;;1.70;1.00;;;2.60;99.90;;;;;;5034567;28;20591;-60
2024/01/14 05:56:59;;;;;;;2.20;1.42;;;2.20;99.90;;;;;;5034468;28;20077;-60
2024/01/14 05:59:25;;;;;;;2.38;1.33;;;2.20;99.90;;;;;;5016692;28;20116;-60
2024/01/14 06:01:50;;;;;;;2.25;1.50;;;2.20;99.90;;;;;;5016769;28;20485;-59
2024/01/14 06:04:16;;;;;;;2.63;1.33;;;2.20;99.90;;;;;;5016720;28;20120;-60
2024/01/14 06:06:42;;;;;;;1.38;1.20;;;2.30;99.90;;;;;;5016912;28;20053;-60
2024/01/14 06:09:07;;;;;;;2.65;1.25;;;2.30;99.90;;;;;;5034278;28;20071;-60
2024/01/14 06:11:33;;;;;;;1.63;1.02;;;3.00;99.90;;;;;;5034913;28;20037;-78
2024/01/14 06:13:58;;;;;;;4.03;1.58;;;2.30;99.90;;;;;;5034619;28;20048;-78
2024/01/14 06:16:25;;;;;;;2.03;1.48;;;2.40;99.90;;;;;;5016645;28;20075;-78
2024/01/14 06:18:51;;;;;;;4.88;1.65;;;2.40;99.90;;;;;;5034555;28;20041;-78
2024/01/14 06:21:17;;;;;;;2.50;1.23;;;2.50;99.90;;;;;;5034991;28;20552;-78
2024/01/14 06:23:42;;;;;;;2.15;1.13;;;2.50;99.90;;;;;;5034642;28;20049;-78
2024/01/14 06:26:14;;;;;;;2.33;1.13;;;2.40;99.90;;;;;;5035607;28;20379;-77
2024/01/14 06:28:40;;;;;;;1.52;1.27;;;2.50;99.90;;;;;;5034748;28;20108;-79
2024/01/14 06:31:14;;;;;;;4.60;1.45;;;2.50;99.90;;;;;;5035333;28;20088;-79
2024/01/14 06:33:53;;;;;;;;;;;2.50;99.90;;;;;;5037618;28;20053;-78
2024/01/14 06:36:19;;;;;;;3.05;1.58;;;2.50;99.90;;;;;;5038547;28;19920;-79
2024/01/14 06:38:45;;;;;;;3.95;1.33;;;2.50;99.90;;;;;;5017055;28;20040;-78
2024/01/14 06:41:18;;;;;;;2.78;1.10;;;2.60;99.90;;;;;;5035407;28;20081;-79
2024/01/14 06:43:43;;;;;;;1.27;1.00;;;2.60;99.90;;;;;;5018532;28;20044;-78
2024/01/14 06:46:09;;;;;;;2.55;1.35;;;2.80;99.90;;;;;;5036116;28;20048;-78
2024/01/14 06:48:35;;;;;;;1.58;0.90;;;2.60;99.90;;;;;;5037645;28;20048;-78
2024/01/14 06:51:01;;;;;;;1.80;1.00;;;2.70;99.90;;;;;;5037441;28;20045;-78
2024/01/14 06:53:27;;;;;;;2.42;1.20;;;2.70;99.90;;;;;;5034660;28;20037;-78
2024/01/14 06:55:52;;;;;;;2.20;1.38;;;2.60;99.90;;;;;;5039995;28;20048;-77
2024/01/14 06:58:18;;;;;;;2.85;1.23;;;2.60;99.90;;;;;;5035159;28;20068;-78
2024/01/14 07:00:44;;;;;;;2.00;1.00;;;2.70;99.90;;;;;;5018138;28;20496;-78
2024/01/14 07:03:10;;;;;;;2.38;0.95;;;2.70;99.90;;;;;;5017120;28;20049;-78
2024/01/14 07:05:35;;;;;;;2.95;1.30;;;2.70;99.90;;;;;;5033740;28;20033;-76
2024/01/14 07:08:02;;;;;;;4.45;1.60;;;2.70;99.90;;;;;;5033391;28;20133;-78
2024/01/14 07:10:28;;;;;;;1.27;1.10;;;2.70;99.90;;;;;;5033912;28;20081;-75
2024/01/14 07:12:54;;;;;;;1.63;1.02;;;2.70;99.90;;;;;;5033614;28;20564;-78
2024/01/14 07:15:19;;;;;;;1.70;0.93;;;2.90;99.90;;;;;;5033765;28;20048;-79
2024/01/14 07:17:45;;;;;;;3.75;1.40;;;2.70;99.90;;;;;;5033889;28;20059;-78
2024/01/14 07:20:11;;;;;;;2.38;1.42;;;2.60;99.90;;;;;;5033582;28;20037;-64
2024/01/14 07:22:37;;;;;;;1.85;1.02;;;2.60;99.90;;;;;;5033065;28;20092;-64
2024/01/14 07:25:04;;;;;;;2.03;1.00;;;2.60;99.90;;;;;;5033174;28;20077;-64
2024/01/14 07:27:30;;;;;;;1.67;1.00;;;2.60;99.90;;;;;;5033235;28;20099;-64
2024/01/14 07:29:56;;;;;;;0.80;0.80;;;2.60;99.90;;;;;;5033423;28;20033;-64
2024/01/14 07:32:28;;;;;;;3.72;1.30;;;2.60;99.90;;;;;;5032675;28;20053;-64
2024/01/14 07:34:54;;;;;;;3.10;1.15;;;2.60;99.90;;;;;;5033375;28;20080;-64
2024/01/14 07:37:20;;;;;;;3.53;1.05;;;3.00;99.90;;;;;;5033347;28;20396;-64
2024/01/14 07:39:46;;;;;;;2.53;1.35;;;2.60;99.90;;;;;;5033050;28;20509;-64
2024/01/14 07:42:12;;;;;;;2.50;1.45;;;2.60;99.90;;;;;;5033277;28;20424;-64
2024/01/14 07:44:38;;;;;;;1.25;0.73;;;2.70;99.90;;;;;;5015269;28;20416;-64
2024/01/14 07:47:04;;;;;;;1.38;0.90;;;2.70;99.90;;;;;;5032877;28;20042;-64
2024/01/14 07:49:30;;;;;;;1.05;0.90;;;2.70;99.90;;;;;;5032921;28;20041;-63
2024/01/14 07:51:55;;;;;;;1.83;1.13;;;2.70;99.90;;;;;;5033231;28;20041;-63
2024/01/14 07:54:21;;;;;;;1.17;0.95;;;2.60;99.90;;;;;;5035507;28;20370;-64
2024/01/14 07:56:46;;;;;;;1.33;1.00;;;2.60;99.90;;;;;;5036857;28;20041;-63
2024/01/14 07:59:12;;;;;;;1.98;1.02;;;2.50;99.90;;;;;;5019101;28;20570;-63
2024/01/14 08:01:38;;;;;;;0.95;0.75;;;2.50;99.90;;;;;;5037015;28;20038;-64
2024/01/14 08:04:04;;;;;;;1.23;0.82;;;2.50;99.90;;;;;;5037014;28;20033;-63
2024/01/14 08:06:29;;;;;;;1.10;0.90;;;2.40;99.90;;;;;;5036927;28;20121;-63
2024/01/14 08:08:55;;;;;;;1.35;1.00;;;2.40;99.90;;;;;;5036560;28;20474;-63
2024/01/14 08:11:22;;;;;;;1.48;1.00;;;2.50;99.90;;;;;;5036781;28;20477;-63
2024/01/14 08:13:48;;;;;;;1.73;1.00;;;2.50;99.90;;;;;;5018807;28;20049;-64
2024/01/14 08:16:14;;;;;;;1.67;0.90;;;2.50;99.90;;;;;;5018800;28;20045;-64
2024/01/14 08:18:40;;;;;;;1.67;0.85;;;2.50;99.90;;;;;;5036626;28;20112;-65
2024/01/14 08:21:11;;;;;;;2.25;0.88;;;2.50;99.90;;;;;;5036716;28;20426;-64
2024/01/14 08:23:37;;;;;;;1.85;0.90;;;2.50;99.90;;;;;;5036276;28;20037;-67
2024/01/14 08:26:03;;;;;;;1.35;1.15;;;2.60;99.90;;;;;;5036562;28;20052;-64
2024/01/14 08:28:34;;;;;;;3.17;1.25;;;2.50;99.90;;;;;;5002202;28;20477;-63
2024/01/14 08:31:00;;;;;;;;;;;2.60;99.90;;;;;;5036506;28;20061;-62
2024/01/14 08:33:42;;;;;;;;;;;2.70;99.90;;;;;;5036428;28;19920;-63
2024/01/14 08:36:09;;;;;;;2.15;1.25;;;2.70;99.90;;;;;;5036043;28;19924;-62
2024/01/14 08:38:35;;;;;;;1.58;0.90;;;2.80;99.90;;;;;;5036345;28;20042;-63
2024/01/14 08:41:00;;;;;;;1.67;0.73;;;3.00;99.90;;;;;;5036252;28;20413;-62
2024/01/14 08:43:26;;;;;;;2.30;1.02;;;2.90;99.90;;;;;;5035255;28;20050;-62
2024/01/14 08:45:52;;;;;;;1.65;0.75;;;3.00;99.90;;;;;;5035283;28;20085;-63
2024/01/14 08:48:17;;;;;;;1.02;0.85;;;2.90;99.90;;;;;;5000849;28;20053;-63
2024/01/14 08:50:43;;;;;;;1.55;1.08;;;3.00;99.90;;;;;;5035174;28;20484;-63
2024/01/14 08:53:09;;;;;;;1.42;0.93;;;3.50;99.90;;;;;;5035116;28;20393;-63
2024/01/14 08:55:34;;;;;;;1.85;1.20;;;3.00;99.90;;;;;;5035122;28;20034;-63
2024/01/14 08:58:00;;;;;;;1.17;0.90;;;3.00;99.90;;;;;;5035103;28;20436;-63
2024/01/14 09:00:26;;;;;;;2.05;0.98;;;3.00;99.90;;;;;;5035266;28;20038;-64
2024/01/14 09:02:52;;;;;;;1.38;0.88;;;3.30;99.90;;;;;;5034966;28;20076;-64
2024/01/14 09:05:17;;;;;;;0.90;0.70;;;3.00;99.90;;;;;;5033518;28;20481;-64
2024/01/14 09:07:43;;;;;;;1.05;0.90;;;3.00;99.90;;;;;;5034584;28;20086;-62
2024/01/14 09:10:09;;;;;;;0.85;0.60;;;3.00;99.90;;;;;;5016691;28;20047;-62
2024/01/14 09:12:34;;;;;;;1.27;1.00;;;3.00;99.90;;;;;;5000293;28;20046;-61
2024/01/14 09:15:00;;;;;;;1.42;0.95;;;3.00;99.90;;;;;;5034863;28;20582;-63
2024/01/14 09:17:26;;;;;;;1.58;0.70;;;3.10;99.90;;;;;;5034792;28;20089;-61
2024/01/14 09:19:51;;;;;;;0.65;0.65;;;3.70;99.90;;;;;;5016628;28;20091;-63
2024/01/14 09:22:17;;;;;;;1.42;1.02;;;3.80;99.90;;;;;;5034679;28;20056;-63
2024/01/14 09:24:45;;;;;;;1.23;0.82;;;3.30;99.90;;;;;;5034557;28;20073;-64
2024/01/14 09:27:13;;;;;;;1.38;0.73;;;3.50;99.90;;;;;;5034494;28;20041;-64
2024/01/14 09:29:39;;;;;;;1.17;0.95;;;3.40;99.90;;;;;;5034525;28;20073;-63
2024/01/14 09:32:11;;;;;;;1.52;1.05;;;3.40;99.90;;;;;;5033698;28;20061;-66
2024/01/14 09:34:50;;;;;;;0.98;0.80;;;3.40;99.90;;;;;;5034195;28;20056;-64
2024/01/14 09:37:17;;;;;;;1.35;1.00;;;3.40;99.90;;;;;;5034411;28;20464;-65
2024/01/14 09:39:42;;;;;;;2.25;1.08;;;3.40;99.90;;;;;;5033968;28;20041;-63
2024/01/14 09:42:27;;;;;;;1.17;0.80;;;3.40;99.90;;;;;;5034799;28;20095;-76
2024/01/14 09:45:02;;;;;;;2.42;0.90;;;3.40;99.90;;;;;;5034579;28;20069;-75
2024/01/14 09:47:28;;;;;;;1.33;0.88;;;3.40;99.90;;;;;;5016474;28;20484;-76
2024/01/14 09:49:55;;;;;;;0.77;0.77;;;3.40;99.90;;;;;;5017143;28;20073;-59
2024/01/14 09:52:21;;;;;;;1.55;0.68;;;3.90;99.90;;;;;;5000324;28;20425;-60
2024/01/14 09:54:47;;;;;;;1.80;0.82;;;3.80;99.90;;;;;;5016209;28;20390;-60
2024/01/14 09:57:18;;;;;;;1.27;0.70;;;3.40;99.90;;;;;;5015865;28;20045;-60
2024/01/14 09:59:44;;;;;;;1.45;0.90;;;3.40;99.90;;;;;;5015913;28;20041;-60
2024/01/14 10:02:14;;;;;;;1.75;1.00;;;3.40;99.90;;;;;;5033974;28;20099;-60
2024/01/14 10:04:40;;;;;;;1.83;1.02;;;3.40;99.90;;;;;;5016068;28;20493;-60
2024/01/14 10:07:09;;;;;;;1.85;0.98;;;3.40;99.90;;;;;;5033898;28;20049;-60
2024/01/14 10:09:36;;;;;;;1.98;0.70;;;3.40;99.90;;;;;;5033363;28;20081;-60
2024/01/14 10:12:02;;;;;;;1.52;0.90;;;3.50;99.90;;;;;;5033686;28;20612;-64
2024/01/14 10:14:28;;;;;;;2.05;1.20;;;3.70;99.90;;;;;;5033578;28;20073;-64
2024/01/14 10:17:00;;;;;;;1.85;0.73;;;;;;;;;;5033004;28;20115;-64
2024/01/14 10:19:26;;;;;;;1.13;0.80;;;3.90;99.90;;;;;;5033285;28;20124;-65
2024/01/14 10:21:54;;;;;;;1.20;0.70;;;3.90;99.90;;;;;;5033045;28;20072;-65
2024/01/14 10:24:23;;;;;;;2.47;0.85;;;4.10;99.90;;;;;;5033049;28;20074;-69
2024/01/14 10:26:55;;;;;;;1.65;0.90;;;4.10;99.90;;;;;;5015458;28;20128;-69
2024/01/14 10:29:21;;;;;;;2.63;1.05;;;4.20;99.90;;;;;;5015370;28;20038;-68
2024/01/14 10:31:54;;;;;;;0.77;0.70;;;4.20;99.90;;;;;;5014913;28;20057;-68
2024/01/14 10:34:20;;;;;;;1.27;1.02;;;4.20;99.90;;;;;;5015261;28;20053;-68
2024/01/14 10:36:46;;;;;;;1.40;1.10;;;4.30;99.90;;;;;;5015311;28;20042;-68
2024/01/14 10:39:12;;;;;;;1.17;0.73;;;4.40;99.90;;;;;;5015046;28;20053;-69
2024/01/14 10:41:39;;;;;;;1.23;0.90;;;4.40;99.90;;;;;;5032872;28;20117;-68
2024/01/14 10:44:05;;;;;;;1.50;0.77;;;4.50;99.90;;;;;;5015098;28;20041;-68
2024/01/14 10:46:34;;;;;;;1.38;0.95;;;4.50;99.90;;;;;;5032768;28;20060;-68
2024/01/14 10:49:06;;;;;;;0.82;0.80;;;4.50;99.90;;;;;;5014944;28;20045;-68
2024/01/14 10:51:38;;;;;;;1.20;0.82;;;4.50;99.90;;;;;;5015328;28;20485;-68
2024/01/14 10:54:19;;;;;;;;;;;4.50;99.90;;;;;;4999009;28;20465;-67
2024/01/14 10:56:49;;;;;;;1.33;0.88;;;4.50;99.90;;;;;;5014994;28;19972;-68
2024/01/14 10:59:18;;;;;;;0.60;0.60;;;4.60;99.90;;;;;;5015081;28;20465;-69
2024/01/14 11:01:52;;;;;;;0.80;0.80;;;4.60;99.90;;;;;;5032580;28;20330;-69
2024/01/14 11:04:18;;;;;;;1.38;0.82;;;4.60;99.90;;;;;;5032562;28;20038;-68
2024/01/14 11:06:45;;;;;;;2.35;1.15;;;4.70;99.90;;;;;;5015058;28;20061;-69
2024/01/14 11:09:11;;;;;;;3.05;1.33;;;5.00;99.90;;;;;;5032835;28;20392;-68
2024/01/14 11:11:48;;;;;;;1.00;0.90;;;4.70;99.90;;;;;;5032788;28;20489;-68
2024/01/14 11:14:27;;;;;;;1.98;1.08;;;4.70;99.90;;;;;;5032596;28;20033;-68
2024/01/14 11:17:03;;;;;;;1.70;0.75;;;4.70;99.90;;;;;;5032579;28;20380;-70
2024/01/14 11:19:35;;;;;;;1.55;1.00;;;4.70;99.90;;;;;;5032337;28;20080;-69
2024/01/14 11:22:17;;;;;;;1.20;0.90;;;4.70;99.90;;;;;;5014762;28;20045;-73
2024/01/14 11:24:43;;;;;;;2.45;0.93;;;4.70;99.90;;;;;;5014903;28;20037;-73
2024/01/14 11:27:08;;;;;;;1.15;0.93;;;4.70;99.90;;;;;;5032536;28;20102;-73
2024/01/14 11:29:40;;;;;;;1.38;0.80;;;4.70;99.90;;;;;;5031991;28;20140;-74
2024/01/14 11:32:08;;;;;;;;;;;4.80;99.90;;;;;;5014665;28;20053;-74
2024/01/14 11:34:47;;;;;;;2.67;2.30;;;4.90;99.90;;;;;;5014582;28;19917;-74
2024/01/14 11:37:38;;;;;;;2.38;1.73;;;5.00;99.90;;;;;;5014576;28;20053;-73
2024/01/14 11:40:07;;;;;;;1.70;1.20;;;5.00;99.90;;;;;;5015008;28;20516;-76
2024/01/14 11:42:38;;;;;;;2.80;0.90;;;5.00;99.90;;;;;;5014874;28;20188;-76
2024/01/14 11:45:13;;;;;;;3.05;1.05;;;4.90;99.90;;;;;;5014648;28;20088;-75
2024/01/14 11:47:46;;;;;;;3.17;1.00;;;4.90;99.90;;;;;;5032293;28;20521;-72
2024/01/14 11:50:14;;;;;;;1.42;1.00;;;4.90;99.90;;;;;;5032330;28;20037;-71
2024/01/14 11:52:51;;;;;;;1.27;0.95;;;4.90;99.90;;;;;;5014367;28;20064;-72
2024/01/14 11:55:24;;;;;;;1.73;1.10;;;4.90;99.90;;;;;;5014580;28;20398;-72
2024/01/14 11:57:50;;;;;;;1.35;1.10;;;4.90;99.90;;;;;;5014725;28;20079;-71
2024/01/14 12:00:21;;;;;;;1.10;0.80;;;4.90;99.90;;;;;;5014332;28;20471;-68
2024/01/14 12:02:47;;;;;;;1.35;0.70;;;4.90;99.90;;;;;;5032140;28;20045;-68
2024/01/14 12:05:16;;;;;;;1.02;0.70;;;4.90;99.90;;;;;;5031912;28;20124;-68
2024/01/14 12:07:42;;;;;;;2.35;0.82;;;5.00;99.90;;;;;;5031925;28;20052;-69
2024/01/14 12:10:16;;;;;;;1.38;0.75;;;5.10;99.90;;;;;;5014172;28;20037;-68
2024/01/14 12:12:43;;;;;;;2.00;0.75;;;5.00;99.90;;;;;;5031808;28;20068;-68
2024/01/14 12:15:09;;;;;;;2.72;1.15;;;5.10;99.90;;;;;;5032000;28;20049;-68
2024/01/14 12:17:35;;;;;;;1.55;1.10;;;5.00;99.90;;;;;;5013998;28;20033;-68
2024/01/14 12:20:04;;;;;;;0.80;0.60;;;5.20;99.90;;;;;;5031942;28;20489;-68
2024/01/14 12:22:30;;;;;;;1.23;0.95;;;5.10;99.90;;;;;;5031576;28;20041;-67
2024/01/14 12:24:56;;;;;;;1.27;0.90;;;5.00;99.90;;;;;;5031524;28;20042;-66
2024/01/14 12:27:22;;;;;;;1.55;0.77;;;4.90;99.90;;;;;;5031543;28;20041;-66
2024/01/14 12:29:48;;;;;;;1.00;0.93;;;4.90;99.90;;;;;;5013979;28;20049;-62
2024/01/14 12:32:27;;;;;;;1.50;0.80;;;5.60;99.90;;;;;;5013678;28;20505;-73
2024/01/14 12:34:59;;;;;;;1.27;0.90;;;4.90;99.90;;;;;;5032206;28;20086;-73
2024/01/14 12:37:25;;;;;;;0.63;0.63;;;4.80;99.90;;;;;;5031807;28;20394;-73
2024/01/14 12:39:52;;;;;;;1.17;0.95;;;4.80;99.90;;;;;;5015863;28;20048;-73
2024/01/14 12:42:18;;;;;;;2.05;0.90;;;4.80;99.90;;;;;;5002372;28;20041;-75
2024/01/14 12:44:44;;;;;;;2.70;1.10;;;5.00;99.90;;;;;;5017321;28;20049;-70
2024/01/14 12:47:10;;;;;;;0.93;0.73;;;4.80;99.90;;;;;;5035133;28;20042;-69
2024/01/14 12:49:36;;;;;;;0.73;0.65;;;5.30;99.90;;;;;;5035689;28;20048;-73
2024/01/14 12:52:05;;;;;;;0.60;0.60;;;4.80;99.90;;;;;;5017981;28;20454;-70
2024/01/14 12:54:31;;;;;;;1.50;0.90;;;4.90;99.90;;;;;;5002698;28;20125;-79
2024/01/14 12:57:06;;;;;;;1.00;0.80;;;5.50;99.90;;;;;;5017425;28;20132;-71